Time;durP1;ratioP1;P1;durP2;ratioP2;P2;SDS_P1;SDS_P2;PMS_P1;PMS_P2;Temp;Humidity;BMP_temperature;BMP_pressure;BME280_temperature;BME280_humidity;BME280_pressure;Samples;Min_cycle;Max_cycle;Signal;HPM_P1;HPM_P2
2024/02/11 00:00:14;;;;;;;21.17;14.95;;;;;;;8.26;100.00;93943.81;4998045;28;20045;-69
2024/02/11 00:02:42;;;;;;;22.80;15.98;;;;;;;8.19;100.00;93950.16;5013323;28;20048;-69
2024/02/11 00:05:08;;;;;;;21.65;14.52;;;;;;;8.31;100.00;93944.09;4982946;28;20455;-68
2024/02/11 00:07:42;;;;;;;23.77;16.30;;;;;;;8.29;100.00;93948.44;5013477;28;20111;-68
2024/02/11 00:10:08;;;;;;;22.38;14.80;;;;;;;8.22;100.00;93955.53;5008924;28;20054;-70
2024/02/11 00:12:40;;;;;;;26.52;16.33;;;;;;;8.12;100.00;93948.34;5010065;28;20125;-68
2024/02/11 00:15:07;;;;;;;21.67;14.82;;;;;;;8.08;100.00;93955.03;4996190;28;20049;-67
2024/02/11 00:17:32;;;;;;;22.45;15.63;;;;;;;8.07;100.00;93962.47;5001511;28;20642;-68
2024/02/11 00:19:59;;;;;;;25.70;16.48;;;;;;;8.08;100.00;93960.50;5015282;28;20041;-68
2024/02/11 00:22:25;;;;;;;22.80;14.93;;;;;;;8.01;100.00;93956.72;5016942;28;20166;-69
2024/02/11 00:24:51;;;;;;;24.73;16.05;;;;;;;8.03;100.00;93959.00;5013967;28;20133;-69
2024/02/11 00:27:16;;;;;;;23.98;15.77;;;;;;;8.03;100.00;93972.63;5009468;28;20327;-69
2024/02/11 00:29:42;;;;;;;23.67;15.77;;;;;;;8.00;100.00;93962.59;5000994;28;20496;-69
2024/02/11 00:32:07;;;;;;;22.88;14.73;;;;;;;8.00;100.00;93968.78;5003977;28;20145;-68
2024/02/11 00:34:33;;;;;;;23.13;15.15;;;;;;;8.03;100.00;93972.63;5016573;28;20077;-68
2024/02/11 00:36:58;;;;;;;21.60;14.48;;;;;;;8.08;100.00;93971.41;5007813;28;20049;-69
2024/02/11 00:39:24;;;;;;;20.23;13.52;;;;;;;8.01;100.00;93975.81;5014345;28;20053;-69
2024/02/11 00:41:50;;;;;;;18.05;11.85;;;;;;;7.96;100.00;93976.28;5014024;28;20121;-69
2024/02/11 00:44:15;;;;;;;17.52;11.50;;;;;;;7.96;100.00;93978.22;5006139;28;20045;-68
2024/02/11 00:46:41;;;;;;;14.18;9.82;;;;;;;7.84;100.00;93980.34;5018981;28;20056;-68
2024/02/11 00:49:08;;;;;;;11.82;7.80;;;;;;;7.80;100.00;93979.66;5005451;28;20132;-68
2024/02/11 00:51:34;;;;;;;5.90;3.70;;;;;;;7.60;100.00;93979.59;5001228;28;20045;-68
2024/02/11 00:53:59;;;;;;;3.15;1.80;;;;;;;7.46;100.00;93983.31;5007748;28;20050;-69
2024/02/11 00:56:25;;;;;;;1.58;1.13;;;;;;;7.27;100.00;93986.69;5002797;28;20062;-68
2024/02/11 00:58:51;;;;;;;0.75;0.75;;;;;;;7.12;100.00;93991.59;5000410;28;20164;-68
2024/02/11 01:01:16;;;;;;;0.80;0.60;;;;;;;6.94;100.00;94002.72;5011465;28;20498;-69
2024/02/11 01:03:42;;;;;;;0.60;0.60;;;;;;;6.95;100.00;94015.16;5004025;28;20045;-68
2024/02/11 01:06:10;;;;;;;1.80;0.57;;;;;;;6.86;100.00;94031.97;5006656;28;20381;-68
2024/02/11 01:08:35;;;;;;;0.60;0.60;;;;;;;6.87;100.00;94038.16;5011009;28;20038;-70
2024/02/11 01:11:01;;;;;;;0.40;0.40;;;;;;;6.65;100.00;94041.13;5018236;28;20049;-66
2024/02/11 01:13:27;;;;;;;0.50;0.50;;;;;;;6.57;100.00;94044.34;4999622;28;20117;-67
2024/02/11 01:15:52;;;;;;;0.43;0.43;;;;;;;6.45;100.00;94051.09;5011487;28;20069;-67
2024/02/11 01:18:18;;;;;;;0.50;0.50;;;;;;;6.36;100.00;94072.53;5013566;28;20423;-68
2024/02/11 01:20:43;;;;;;;0.52;0.52;;;;;;;6.44;100.00;94082.91;5028054;28;20051;-68
2024/02/11 01:23:09;;;;;;;0.40;0.40;;;;;;;6.35;100.00;94079.91;5000725;28;20108;-68
2024/02/11 01:25:34;;;;;;;4.45;2.35;;;;;;;6.30;100.00;94092.00;5002615;28;20144;-67
2024/02/11 01:28:00;;;;;;;2.33;1.55;;;;;;;6.15;100.00;94109.59;5007475;28;20038;-68
2024/02/11 01:30:25;;;;;;;1.30;0.80;;;;;;;6.01;100.00;94105.03;4995404;28;20056;-68
2024/02/11 01:32:51;;;;;;;0.70;0.70;;;;;;;5.96;100.00;94110.13;4999606;28;20098;-68
2024/02/11 01:35:16;;;;;;;0.50;0.50;;;;;;;5.82;100.00;94116.44;4993771;28;20759;-68
2024/02/11 01:37:43;;;;;;;0.73;0.50;;;;;;;5.73;100.00;94125.03;4999321;28;20107;-69
2024/02/11 01:40:15;;;;;;;1.00;0.50;;;;;;;5.65;100.00;94123.50;5010955;28;20048;-69
2024/02/11 01:42:44;;;;;;;0.50;0.50;;;;;;;5.39;100.00;94127.56;5018599;28;20037;-68
2024/02/11 01:45:09;;;;;;;0.57;0.57;;;;;;;5.43;100.00;94141.88;5005592;28;20034;-68
2024/02/11 01:47:36;;;;;;;0.50;0.50;;;;;;;5.39;100.00;94139.19;4999989;28;20069;-68
2024/02/11 01:50:08;;;;;;;0.40;0.40;;;;;;;5.38;100.00;94145.00;4998468;28;20096;-65
2024/02/11 01:52:35;;;;;;;4.85;0.60;;;;;;;5.38;100.00;94153.13;5000303;28;20037;-66
2024/02/11 01:55:01;;;;;;;0.40;0.40;;;;;;;5.27;100.00;94153.19;5027233;28;20128;-67
2024/02/11 01:57:27;;;;;;;0.45;0.45;;;;;;;5.20;100.00;94169.50;5034760;28;20068;-67
2024/02/11 01:59:52;;;;;;;0.50;0.50;;;;;;;5.14;100.00;94186.19;4996610;28;20050;-69
2024/02/11 02:02:20;;;;;;;0.50;0.50;;;;;;;5.11;100.00;94181.56;4994575;28;20050;-68
2024/02/11 02:04:47;;;;;;;0.50;0.50;;;;;;;5.09;100.00;94188.53;5006459;28;20464;-69
2024/02/11 02:07:13;;;;;;;0.50;0.50;;;;;;;4.96;100.00;94190.88;5010753;28;20077;-68
2024/02/11 02:09:39;;;;;;;0.47;0.47;;;;;;;4.91;100.00;94199.44;5010562;28;20056;-67
2024/02/11 02:12:06;;;;;;;2.92;0.70;;;;;;;4.87;100.00;94207.56;5006959;28;20045;-70
2024/02/11 02:14:32;;;;;;;0.60;0.50;;;;;;;4.76;100.00;94204.88;4999453;28;20082;-69
2024/02/11 02:16:57;;;;;;;1.85;0.60;;;;;;;4.68;100.00;94216.91;5005435;28;20057;-68
2024/02/11 02:19:25;;;;;;;1.15;0.65;;;;;;;4.49;100.00;94217.31;5008386;28;20510;-70
2024/02/11 02:21:51;;;;;;;0.70;0.70;;;;;;;4.47;100.00;94222.34;5014071;28;20033;-69
2024/02/11 02:24:17;;;;;;;0.60;0.60;;;;;;;4.52;100.00;94227.34;5001563;28;20466;-68
2024/02/11 02:26:43;;;;;;;0.50;0.50;;;;;;;4.55;100.00;94237.44;4998336;28;20366;-68
2024/02/11 02:29:09;;;;;;;0.75;0.70;;;;;;;4.40;100.00;94237.44;4993275;28;20696;-68
2024/02/11 02:31:37;;;;;;;0.60;0.60;;;;;;;4.42;100.00;94233.56;5007434;28;20133;-67
2024/02/11 02:34:02;;;;;;;0.85;0.80;;;;;;;4.28;100.00;94245.94;4995956;28;20476;-65
2024/02/11 02:36:28;;;;;;;0.77;0.70;;;;;;;4.29;100.00;94255.63;4997794;28;20141;-69
2024/02/11 02:38:53;;;;;;;1.30;0.80;;;;;;;4.25;100.00;94252.13;5012930;28;20443;-69
2024/02/11 02:41:19;;;;;;;1.80;0.80;;;;;;;4.19;100.00;94259.84;5013234;28;20046;-67
2024/02/11 02:43:46;;;;;;;1.55;1.00;;;;;;;4.25;100.00;94256.75;5018783;28;20077;-69
2024/02/11 02:46:12;;;;;;;1.00;0.90;;;;;;;4.19;100.00;94250.94;5004684;28;20073;-68
2024/02/11 02:48:38;;;;;;;0.70;0.70;;;;;;;4.14;100.00;94264.88;5017769;28;20042;-69
2024/02/11 02:51:04;;;;;;;2.55;1.00;;;;;;;4.18;100.00;94258.31;5015125;28;20054;-67
2024/02/11 02:53:29;;;;;;;1.25;1.15;;;;;;;4.09;100.00;94270.66;5002047;28;20041;-68
2024/02/11 02:55:56;;;;;;;1.10;1.00;;;;;;;4.20;100.00;94269.53;5018807;28;20045;-69
2024/02/11 02:58:23;;;;;;;1.67;1.20;;;;;;;4.15;100.00;94267.19;5003531;28;20653;-68
2024/02/11 03:00:49;;;;;;;1.25;1.00;;;;;;;4.07;100.00;94265.66;4999425;28;20030;-69
2024/02/11 03:03:15;;;;;;;1.40;1.30;;;;;;;4.11;100.00;94269.13;5002866;28;20045;-69
2024/02/11 03:05:41;;;;;;;1.65;1.45;;;;;;;4.08;100.00;94266.44;5006216;28;20370;-69
2024/02/11 03:08:07;;;;;;;4.55;1.65;;;;;;;4.07;100.00;94278.41;5002132;28;20080;-68
2024/02/11 03:10:33;;;;;;;2.25;1.73;;;;;;;3.98;100.00;94271.44;5016500;28;20042;-69
2024/02/11 03:12:59;;;;;;;2.35;1.85;;;;;;;3.94;100.00;94280.69;5002296;28;20077;-70
2024/02/11 03:15:25;;;;;;;3.50;2.42;;;;;;;3.93;100.00;94279.16;5010867;28;20053;-70
2024/02/11 03:17:50;;;;;;;2.17;1.73;;;;;;;4.02;100.00;94283.03;5005561;28;20050;-70
2024/02/11 03:20:15;;;;;;;2.85;2.53;;;;;;;4.00;100.00;94281.88;5013229;28;20389;-69
2024/02/11 03:22:44;;;;;;;3.22;2.70;;;;;;;3.95;100.00;94276.84;5018750;28;20106;-70
2024/02/11 03:25:10;;;;;;;3.55;2.83;;;;;;;3.92;100.00;94289.19;5006536;28;20068;-69
2024/02/11 03:27:39;;;;;;;3.42;2.75;;;;;;;3.94;100.00;94295.03;4999352;28;20394;-69
2024/02/11 03:30:07;;;;;;;3.20;2.55;;;;;;;3.96;100.00;94300.03;4994659;28;20412;-67
2024/02/11 03:32:32;;;;;;;3.25;2.75;;;;;;;3.81;100.00;94288.41;5001474;28;20562;-67
2024/02/11 03:34:57;;;;;;;3.50;3.10;;;;;;;3.80;100.00;94290.34;5003148;28;20049;-71
2024/02/11 03:37:23;;;;;;;4.05;3.20;;;;;;;3.83;100.00;94289.59;5005648;28;20521;-68
2024/02/11 03:39:49;;;;;;;3.30;3.00;;;;;;;3.87;100.00;94294.22;5002826;28;20052;-70
2024/02/11 03:42:15;;;;;;;3.83;3.30;;;;;;;3.80;100.00;94298.47;5014756;28;20503;-71
2024/02/11 03:44:40;;;;;;;3.42;3.13;;;;;;;3.85;100.00;94304.66;5018900;28;20106;-67
2024/02/11 03:47:05;;;;;;;3.85;3.45;;;;;;;3.82;100.00;94306.22;4997303;28;20660;-70
2024/02/11 03:49:31;;;;;;;3.92;3.28;;;;;;;3.81;100.00;94313.53;5002212;28;20045;-67
2024/02/11 03:51:57;;;;;;;4.25;3.63;;;;;;;3.80;100.00;94313.94;5017289;28;20072;-67
2024/02/11 03:54:23;;;;;;;4.38;3.80;;;;;;;3.80;100.00;94322.84;5016250;28;20042;-66
2024/02/11 03:56:49;;;;;;;4.68;3.92;;;;;;;3.87;100.00;94321.28;5015790;28;20041;-67
2024/02/11 03:59:15;;;;;;;4.20;3.80;;;;;;;3.85;100.00;94334.44;5001071;28;20115;-68
2024/02/11 04:01:40;;;;;;;4.35;3.88;;;;;;;3.80;100.00;94338.31;5009955;28;20050;-66
2024/02/11 04:04:06;;;;;;;5.00;3.90;;;;;;;3.85;100.00;94337.91;5006648;28;20042;-68
2024/02/11 04:06:34;;;;;;;4.35;3.95;;;;;;;3.76;100.00;94332.88;5001783;28;20041;-69
2024/02/11 04:09:00;;;;;;;4.75;3.70;;;;;;;3.82;100.00;94338.69;5011853;28;20046;-69
2024/02/11 04:11:30;;;;;;;4.55;3.97;;;;;;;3.77;100.00;94341.78;4997374;28;20057;-68
2024/02/11 04:13:56;;;;;;;4.07;3.67;;;;;;;3.77;100.00;94342.53;5010859;28;20512;-68
2024/02/11 04:16:22;;;;;;;5.18;3.17;;;;;;;3.75;100.00;94344.09;5001917;28;20095;-69
2024/02/11 04:18:49;;;;;;;3.70;3.40;;;;;;;3.76;100.00;94349.13;5021901;28;20068;-70
2024/02/11 04:21:21;;;;;;;2.92;2.63;;;;;;;3.69;100.00;94346.38;5004659;28;20405;-70
2024/02/11 04:23:48;;;;;;;3.78;3.30;;;;;;;3.77;100.00;94356.06;5010322;28;20038;-69
2024/02/11 04:26:14;;;;;;;3.63;3.03;;;;;;;3.74;100.00;94351.41;4997886;28;20053;-69
2024/02/11 04:28:41;;;;;;;3.10;2.80;;;;;;;3.75;100.00;94358.38;5014614;28;20041;-70
2024/02/11 04:31:11;;;;;;;3.22;2.83;;;;;;;3.75;100.00;94365.75;5001746;28;20535;-70
2024/02/11 04:33:40;;;;;;;3.10;2.80;;;;;;;3.73;100.00;94362.66;5020080;28;20049;-70
2024/02/11 04:36:12;;;;;;;3.45;2.95;;;;;;;3.72;100.00;94372.69;5011769;28;20072;-69
2024/02/11 04:38:37;;;;;;;3.42;3.13;;;;;;;3.72;100.00;94378.09;5002514;28;20092;-69
2024/02/11 04:41:05;;;;;;;3.60;3.10;;;;;;;3.74;100.00;94386.59;4996781;28;20046;-68
2024/02/11 04:43:34;;;;;;;3.60;3.10;;;;;;;3.77;100.00;94385.84;5004860;28;20498;-70
2024/02/11 04:46:02;;;;;;;4.07;3.67;;;;;;;3.73;100.00;94387.00;5014535;28;20075;-70
2024/02/11 04:48:29;;;;;;;3.70;3.13;;;;;;;3.69;100.00;94403.22;5006961;28;20045;-70
2024/02/11 04:50:56;;;;;;;3.33;2.97;;;;;;;3.68;100.00;94395.50;5012524;28;20048;-70
2024/02/11 04:53:21;;;;;;;4.40;3.55;;;;;;;3.76;100.00;94397.84;4997871;28;20559;-70
2024/02/11 04:55:50;;;;;;;4.18;3.38;;;;;;;3.69;100.00;94399.72;4998682;28;20045;-71
2024/02/11 04:58:19;;;;;;;4.60;4.03;;;;;;;3.74;100.00;94410.22;5003408;28;20184;-69
2024/02/11 05:00:48;;;;;;;10.70;6.90;;;;;;;3.79;100.00;94409.84;5014943;28;20042;-70
2024/02/11 05:03:17;;;;;;;6.10;4.60;;;;;;;3.80;100.00;94409.47;5003986;28;20448;-68
2024/02/11 05:05:44;;;;;;;4.50;3.90;;;;;;;3.71;100.00;94410.94;5009355;28;20413;-69
2024/02/11 05:08:10;;;;;;;3.80;3.40;;;;;;;3.80;100.00;94422.25;4996455;28;20049;-69
2024/02/11 05:10:37;;;;;;;4.63;3.50;;;;;;;3.83;100.00;94422.25;5007638;28;20508;-68
2024/02/11 05:13:14;;;;;;;4.70;3.70;;;;;;;3.81;100.00;94415.66;4996285;28;20532;-66
2024/02/11 05:15:44;;;;;;;5.38;3.78;;;;;;;3.76;100.00;94427.66;5011449;28;20062;-69
2024/02/11 05:18:18;;;;;;;5.22;3.78;;;;;;;3.83;100.00;94432.31;5000609;28;20050;-69
2024/02/11 05:20:43;;;;;;;5.32;3.72;;;;;;;3.87;100.00;94430.41;5006316;28;20042;-69
2024/02/11 05:23:10;;;;;;;3.80;3.25;;;;;;;3.76;100.00;94430.34;5002858;28;20168;-67
2024/02/11 05:25:39;;;;;;;3.40;3.10;;;;;;;3.79;100.00;94434.22;5002751;28;20145;-67
2024/02/11 05:28:06;;;;;;;;;;;;;;;3.82;100.00;94433.47;5008816;28;20066;-67
2024/02/11 05:30:33;;;;;;;3.78;3.25;;;;;;;3.83;100.00;94440.44;5001218;28;19925;-68
2024/02/11 05:33:00;;;;;;;4.20;3.03;;;;;;;3.79;100.00;94434.22;5009712;28;20607;-68
2024/02/11 05:35:29;;;;;;;4.88;3.63;;;;;;;3.82;100.00;94436.19;5014416;28;20144;-70
2024/02/11 05:37:58;;;;;;;4.83;3.13;;;;;;;3.93;100.00;94442.44;5012241;28;20045;-68
2024/02/11 05:40:24;;;;;;;4.20;3.28;;;;;;;3.88;100.00;94447.44;4997794;28;20289;-67
2024/02/11 05:42:50;;;;;;;4.20;3.03;;;;;;;3.77;100.00;94452.78;5008723;28;20065;-69
2024/02/11 05:45:16;;;;;;;3.90;3.17;;;;;;;3.77;100.00;94453.56;4994416;28;20447;-70
2024/02/11 05:47:42;;;;;;;6.28;3.17;;;;;;;3.71;100.00;94457.78;5003346;28;20041;-69
2024/02/11 05:50:08;;;;;;;4.25;3.45;;;;;;;3.74;100.00;94458.94;5013677;28;20045;-69
2024/02/11 05:52:34;;;;;;;4.10;3.38;;;;;;;3.78;100.00;94457.03;5002280;28;20045;-70
2024/02/11 05:55:00;;;;;;;4.57;3.30;;;;;;;3.84;100.00;94458.25;5014245;28;20045;-69
2024/02/11 05:57:27;;;;;;;3.60;2.90;;;;;;;3.80;100.00;94460.16;5008395;28;20447;-69
2024/02/11 05:59:52;;;;;;;4.60;3.58;;;;;;;3.78;100.00;94468.66;5018513;28;20084;-68
2024/02/11 06:02:17;;;;;;;4.88;3.70;;;;;;;3.72;100.00;94467.44;5021861;28;20049;-69
2024/02/11 06:04:43;;;;;;;4.85;3.75;;;;;;;3.74;100.00;94467.84;5015048;28;20037;-70
2024/02/11 06:07:10;;;;;;;4.28;3.17;;;;;;;3.81;100.00;94467.09;4995746;28;20045;-70
2024/02/11 06:09:38;;;;;;;4.75;3.38;;;;;;;3.72;100.00;94463.97;5006765;28;20341;-69
2024/02/11 06:12:06;;;;;;;7.00;3.58;;;;;;;3.75;100.00;94472.09;5001078;28;20485;-67
2024/02/11 06:14:33;;;;;;;4.25;3.10;;;;;;;3.89;100.00;94481.47;4999138;28;20045;-68
2024/02/11 06:16:58;;;;;;;4.57;3.38;;;;;;;3.81;100.00;94470.59;5000486;28;20046;-69
2024/02/11 06:19:24;;;;;;;5.72;3.05;;;;;;;3.83;100.00;94472.91;5005550;28;20107;-68
2024/02/11 06:21:51;;;;;;;4.63;3.28;;;;;;;3.87;100.00;94479.16;5011863;28;20125;-70
2024/02/11 06:24:16;;;;;;;4.68;3.45;;;;;;;3.79;100.00;94489.16;5014937;28;20072;-70
2024/02/11 06:26:41;;;;;;;8.30;3.53;;;;;;;3.87;100.00;94489.19;5001490;28;20034;-70
2024/02/11 06:29:08;;;;;;;3.90;3.20;;;;;;;3.93;100.00;94495.81;5012957;28;20076;-68
2024/02/11 06:31:34;;;;;;;5.45;3.80;;;;;;;3.89;100.00;94492.28;5011332;28;20041;-70
2024/02/11 06:34:00;;;;;;;4.57;3.40;;;;;;;3.95;100.00;94498.94;5013632;28;20485;-69
2024/02/11 06:36:26;;;;;;;4.32;3.38;;;;;;;4.04;100.00;94507.50;4993468;28;20503;-70
2024/02/11 06:38:51;;;;;;;5.28;3.63;;;;;;;3.92;100.00;94508.56;5002644;28;20046;-68
2024/02/11 06:41:18;;;;;;;4.78;3.53;;;;;;;4.06;100.00;94515.25;4992150;28;20054;-69
2024/02/11 06:43:43;;;;;;;7.15;3.70;;;;;;;4.10;100.00;94514.09;4999128;28;20042;-69
2024/02/11 06:46:10;;;;;;;11.90;6.55;;;;;;;4.10;100.00;94510.63;5003650;28;20608;-68
2024/02/11 06:48:35;;;;;;;5.57;3.90;;;;;;;4.10;100.00;94518.75;5004917;28;20067;-69
2024/02/11 06:51:01;;;;;;;6.72;4.35;;;;;;;4.17;100.00;94516.84;5036934;22;20041;-68
2024/02/11 06:53:29;;;;;;;8.13;3.67;;;;;;;4.15;100.00;94521.09;5032792;28;20056;-70
2024/02/11 06:55:54;;;;;;;4.93;3.35;;;;;;;4.15;100.00;94519.16;5071517;28;20049;-70
2024/02/11 06:58:19;;;;;;;5.28;3.78;;;;;;;4.16;100.00;94525.34;5042862;28;20263;-70
2024/02/11 07:00:45;;;;;;;4.88;3.15;;;;;;;4.10;100.00;94519.50;5052646;28;20072;-70
2024/02/11 07:03:11;;;;;;;7.22;4.72;;;;;;;4.17;100.00;94524.97;5036687;28;20511;-71
2024/02/11 07:05:38;;;;;;;6.15;4.40;;;;;;;4.17;100.00;94527.69;5045616;28;20044;-70
2024/02/11 07:08:06;;;;;;;5.97;3.90;;;;;;;4.17;100.00;94533.09;5051940;28;20044;-71
2024/02/11 07:10:32;;;;;;;6.25;3.67;;;;;;;4.17;100.00;94535.81;5047672;28;20510;-70
2024/02/11 07:12:58;;;;;;;5.22;3.88;;;;;;;4.14;100.00;94538.50;5060247;28;20048;-69
2024/02/11 07:15:24;;;;;;;6.00;3.90;;;;;;;4.20;100.00;94542.44;5053868;28;20111;-69
2024/02/11 07:17:50;;;;;;;6.22;3.95;;;;;;;4.20;100.00;94547.84;5058347;28;20079;-68
2024/02/11 07:20:15;;;;;;;6.05;3.60;;;;;;;4.18;100.00;94553.63;5061822;28;20068;-69
2024/02/11 07:22:42;;;;;;;5.32;3.90;;;;;;;4.20;100.00;94551.31;5039139;28;20136;-70
2024/02/11 07:25:08;;;;;;;6.15;3.95;;;;;;;4.18;100.00;94561.75;5057948;28;20048;-70
2024/02/11 07:27:34;;;;;;;5.40;4.22;;;;;;;4.21;100.00;94561.03;5046211;28;20078;-69
2024/02/11 07:30:00;;;;;;;6.50;3.67;;;;;;;4.27;100.00;94564.16;5050900;28;20064;-69
2024/02/11 07:32:26;;;;;;;5.25;3.85;;;;;;;4.31;100.00;94575.00;5042793;28;20049;-70
2024/02/11 07:34:51;;;;;;;6.05;3.90;;;;;;;4.45;100.00;94574.28;5051620;28;20052;-70
2024/02/11 07:37:17;;;;;;;7.95;4.35;;;;;;;4.53;100.00;94571.25;5051408;28;20332;-70
2024/02/11 07:39:42;;;;;;;5.25;3.80;;;;;;;4.62;100.00;94576.34;5044161;28;20506;-69
2024/02/11 07:42:08;;;;;;;5.80;3.38;;;;;;;4.69;100.00;94575.59;5071835;28;20053;-70
2024/02/11 07:44:35;;;;;;;5.30;3.90;;;;;;;4.66;100.00;94581.78;5073321;28;20040;-70
2024/02/11 07:47:02;;;;;;;7.03;4.40;;;;;;;4.60;100.00;94590.25;5051127;28;20369;-70
2024/02/11 07:49:28;;;;;;;6.28;4.32;;;;;;;4.56;100.00;94589.47;5059954;28;20119;-70
2024/02/11 07:51:55;;;;;;;6.82;4.72;;;;;;;4.74;100.00;94594.22;5053458;28;20135;-69
2024/02/11 07:54:23;;;;;;;9.68;7.00;;;;;;;4.72;100.00;94596.53;5045786;28;21991;-70
2024/02/11 07:56:52;;;;;;;21.30;12.88;;;;;;;4.66;100.00;94600.75;5046931;28;20067;-73
2024/02/11 07:59:18;;;;;;;6.53;5.07;;;;;;;4.48;100.00;94597.94;5046825;28;20045;-69
2024/02/11 08:01:43;;;;;;;8.30;4.55;;;;;;;4.39;100.00;94592.84;5048945;28;20067;-70
2024/02/11 08:04:10;;;;;;;5.90;4.50;;;;;;;4.37;100.00;94597.88;5045869;28;20165;-70
2024/02/11 08:06:35;;;;;;;7.43;5.30;;;;;;;4.43;100.00;94603.72;5051913;28;20125;-70
2024/02/11 08:09:02;;;;;;;8.48;5.25;;;;;;;4.41;100.00;94617.66;5060520;28;20048;-70
2024/02/11 08:11:30;;;;;;;15.55;11.57;;;;;;;4.18;100.00;94610.53;5051574;28;20048;-70
2024/02/11 08:13:55;;;;;;;33.67;19.75;;;;;;;4.16;100.00;94620.19;5059967;28;20108;-70
2024/02/11 08:16:22;;;;;;;8.35;5.90;;;;;;;3.95;100.00;94620.81;5047874;28;20612;-69
2024/02/11 08:18:48;;;;;;;7.82;5.45;;;;;;;3.88;100.00;94623.47;5044619;28;20049;-69
2024/02/11 08:21:14;;;;;;;7.68;5.90;;;;;;;3.94;100.00;94622.75;5046507;28;20041;-70
2024/02/11 08:23:39;;;;;;;9.00;7.03;;;;;;;3.99;100.00;94624.31;5049253;28;20142;-70
2024/02/11 08:26:06;;;;;;;9.32;7.60;;;;;;;3.93;100.00;94631.25;5039985;28;20111;-70
2024/02/11 08:28:32;;;;;;;12.80;8.48;;;;;;;3.96;100.00;94631.28;5052227;28;20137;-69
2024/02/11 08:30:58;;;;;;;12.13;8.25;;;;;;;3.97;100.00;94626.63;5050976;28;20048;-69
2024/02/11 08:33:24;;;;;;;14.32;8.57;;;;;;;4.11;100.00;94634.88;5043054;28;20168;-70
2024/02/11 08:35:51;;;;;;;14.75;8.68;;;;;;;4.21;100.00;94646.94;5044502;28;20107;-71
2024/02/11 08:38:16;;;;;;;13.68;8.45;;;;;;;4.37;100.00;94646.66;5040185;28;20060;-71
2024/02/11 08:40:42;;;;;;;13.25;8.20;;;;;;;4.22;100.00;94649.28;5052047;28;20051;-72
2024/02/11 08:43:08;;;;;;;11.93;8.27;;;;;;;4.21;100.00;94645.03;5049534;28;20044;-71
2024/02/11 08:45:33;;;;;;;11.48;7.47;;;;;;;4.15;100.00;94648.44;5046894;28;20446;-71
2024/02/11 08:47:59;;;;;;;15.73;9.55;;;;;;;4.15;100.00;94643.78;5048603;28;20554;-70
2024/02/11 08:50:25;;;;;;;11.18;7.93;;;;;;;4.14;100.00;94644.97;5048541;28;20136;-69
2024/02/11 08:52:51;;;;;;;9.80;6.55;;;;;;;4.09;100.00;94650.72;5055327;28;20128;-71
2024/02/11 08:55:17;;;;;;;20.80;14.98;;;;;;;4.06;100.00;94645.28;5049826;28;20186;-71
2024/02/11 08:57:45;;;;;;;11.18;8.07;;;;;;;4.07;100.00;94655.75;5043893;28;20041;-71
2024/02/11 09:00:12;;;;;;;10.80;7.30;;;;;;;4.09;100.00;94655.34;5045996;28;20487;-71
2024/02/11 09:02:38;;;;;;;11.57;9.00;;;;;;;4.08;100.00;94649.16;5045729;28;20045;-71
2024/02/11 09:05:04;;;;;;;10.75;7.72;;;;;;;4.15;100.00;94653.88;5066639;28;20070;-71
2024/02/11 09:07:29;;;;;;;11.02;7.72;;;;;;;4.19;100.00;94655.44;5054184;28;20052;-71
2024/02/11 09:09:55;;;;;;;12.85;8.68;;;;;;;4.32;100.00;94652.44;5058766;28;20532;-71
2024/02/11 09:12:20;;;;;;;12.23;8.90;;;;;;;4.34;100.00;94647.41;5068735;28;20044;-70
2024/02/11 09:14:47;;;;;;;12.07;9.10;;;;;;;4.52;100.00;94647.53;5054050;28;20043;-70
2024/02/11 09:17:13;;;;;;;13.35;8.93;;;;;;;4.50;100.00;94656.06;5056072;28;20048;-71
2024/02/11 09:19:38;;;;;;;13.35;9.93;;;;;;;4.55;100.00;94663.81;5047605;28;20070;-70
2024/02/11 09:22:05;;;;;;;12.52;9.35;;;;;;;4.66;100.00;94660.41;5048436;28;20087;-69
2024/02/11 09:24:32;;;;;;;15.13;9.75;;;;;;;4.68;100.00;94660.81;5043783;28;20065;-69
2024/02/11 09:26:58;;;;;;;14.35;9.10;;;;;;;4.87;100.00;94663.25;5032507;28;20045;-69
2024/02/11 09:29:23;;;;;;;18.05;10.25;;;;;;;4.91;100.00;94665.97;5044312;28;20046;-69
2024/02/11 09:31:49;;;;;;;14.75;8.80;;;;;;;4.78;100.00;94668.22;5049681;28;20139;-69
2024/02/11 09:34:15;;;;;;;11.85;7.82;;;;;;;4.64;100.00;94662.72;5049115;28;20044;-70
2024/02/11 09:36:41;;;;;;;13.75;8.35;;;;;;;4.60;100.00;94662.69;5048072;28;20048;-70
2024/02/11 09:39:07;;;;;;;15.70;9.63;;;;;;;4.72;100.00;94673.25;5047761;28;20049;-69
2024/02/11 09:41:34;;;;;;;25.98;13.52;;;;;;;4.93;100.00;94669.09;5026278;28;20500;-70
2024/02/11 09:44:04;;;;;;;20.27;14.35;;;;;;;4.98;100.00;94666.78;5054062;28;20635;-70
2024/02/11 09:46:37;;;;;;;22.52;13.25;;;;;;;4.84;100.00;94674.06;5049770;28;20499;-70
2024/02/11 09:49:14;;;;;;;12.93;7.43;;;;;;;4.87;100.00;94674.09;5039186;28;20112;-69
2024/02/11 09:51:41;;;;;;;16.80;11.88;;;;;;;5.03;100.00;94678.44;5065779;28;20044;-69
2024/02/11 09:54:07;;;;;;;12.73;8.43;;;;;;;5.03;100.00;94668.38;5035097;28;20559;-70
2024/02/11 09:56:33;;;;;;;12.13;8.68;;;;;;;5.16;100.00;94674.25;5032901;28;20059;-70
2024/02/11 09:58:58;;;;;;;10.93;7.60;;;;;;;5.31;100.00;94675.06;5028984;28;20053;-71
2024/02/11 10:01:24;;;;;;;15.50;10.38;;;;;;;5.25;100.00;94687.47;5052074;28;20045;-71
2024/02/11 10:03:54;;;;;;;11.95;8.13;;;;;;;5.15;100.00;94678.13;5045933;28;20045;-71
2024/02/11 10:06:34;;;;;;;15.32;9.88;;;;;;;5.34;100.00;94682.47;5045609;28;20051;-72
2024/02/11 10:09:00;;;;;;;18.52;8.88;;;;;;;5.63;100.00;94686.03;5049286;28;20045;-71
2024/02/11 10:11:27;;;;;;;12.50;6.68;;;;;;;5.85;100.00;94688.81;5045563;28;20048;-71
2024/02/11 10:13:57;;;;;;;11.73;7.72;;;;;;;5.87;100.00;94683.78;5082157;28;20049;-71
2024/02/11 10:16:23;;;;;;;11.02;6.53;;;;;;;6.21;100.00;94695.13;5010933;28;20967;-71
2024/02/11 10:18:50;;;;;;;9.55;5.72;;;;;;;6.44;100.00;94685.81;5055070;28;20045;-71
2024/02/11 10:21:18;;;;;;;8.18;5.20;;;;;;;6.59;100.00;94687.38;5046540;28;20048;-71
2024/02/11 10:23:44;;;;;;;12.48;7.78;;;;;;;6.72;100.00;94689.66;5035562;28;20045;-71
2024/02/11 10:26:11;;;;;;;7.93;5.68;;;;;;;6.86;100.00;94692.38;5038940;28;20051;-72
2024/02/11 10:28:38;;;;;;;7.32;5.03;;;;;;;6.87;100.00;94691.97;5046821;28;20390;-71
2024/02/11 10:31:05;;;;;;;8.65;4.60;;;;;;;7.06;100.00;94687.28;5038541;28;20179;-69
2024/02/11 10:33:31;;;;;;;7.05;3.90;;;;;;;7.13;100.00;94695.44;5061039;28;20042;-71
2024/02/11 10:35:58;;;;;;;8.65;4.35;;;;;;;7.17;100.00;94690.75;5041419;28;20084;-71
2024/02/11 10:38:25;;;;;;;8.23;4.47;;;;;;;7.25;100.00;94703.16;5038602;28;20074;-70
2024/02/11 10:40:52;;;;;;;8.05;4.78;;;;;;;7.05;100.00;94696.63;5056035;28;20048;-70
2024/02/11 10:43:21;;;;;;;7.57;4.72;;;;;;;6.96;100.00;94699.75;5051266;28;20131;-70
2024/02/11 10:45:46;;;;;;;6.82;4.18;;;;;;;7.09;100.00;94697.38;5049706;28;20044;-70
2024/02/11 10:48:12;;;;;;;8.35;4.60;;;;;;;7.15;100.00;94697.75;5053270;28;20071;-70
2024/02/11 10:50:37;;;;;;;6.38;3.80;;;;;;;7.18;100.00;94699.69;5065088;28;20051;-70
2024/02/11 10:53:03;;;;;;;8.18;3.88;;;;;;;6.85;100.00;94702.47;5044055;28;20048;-72
2024/02/11 10:55:38;;;;;;;8.65;4.50;;;;;;;6.84;100.00;94706.38;5062502;28;20384;-71
2024/02/11 10:58:07;;;;;;;8.88;4.07;;;;;;;7.07;100.00;94702.44;5042914;28;20540;-72
2024/02/11 11:00:34;;;;;;;7.00;3.97;;;;;;;7.11;100.00;94694.25;5035343;28;20121;-72
2024/02/11 11:03:04;;;;;;;7.00;4.60;;;;;;;7.02;100.00;94694.66;5060241;28;20041;-72
2024/02/11 11:05:32;;;;;;;;;;;;;;;6.54;100.00;94698.63;5070226;28;20062;-72
2024/02/11 11:08:00;;;;;;;9.40;3.92;;;;;;;6.70;100.00;94695.53;5040301;28;19923;-72
2024/02/11 11:10:29;;;;;;;7.40;3.08;;;;;;;6.60;100.00;94693.56;5064886;28;20490;-72
2024/02/11 11:12:55;;;;;;;5.53;3.22;;;;;;;6.47;100.00;94699.41;5063934;28;20125;-71
2024/02/11 11:15:27;;;;;;;7.50;3.20;;;;;;;6.53;100.00;94693.56;5058904;28;20060;-71
2024/02/11 11:17:53;;;;;;;5.60;2.95;;;;;;;6.51;100.00;94689.28;5059039;28;20049;-71
2024/02/11 11:20:19;;;;;;;6.93;3.20;;;;;;;6.44;100.00;94689.28;5027085;28;20418;-71
2024/02/11 11:22:53;;;;;;;5.72;3.10;;;;;;;6.74;100.00;94695.50;5052904;28;20055;-71
2024/02/11 11:25:20;;;;;;;6.15;3.35;;;;;;;6.92;100.00;94688.09;5039373;28;20040;-70
2024/02/11 11:27:46;;;;;;;6.25;3.20;;;;;;;6.97;100.00;94687.69;5042561;28;20087;-71